createdAt,value
2023-05-10T00:00:40.751Z,94.15
2023-05-10T00:03:07.319Z,93.85
2023-05-10T00:05:33.717Z,93.97
2023-05-10T00:08:00.330Z,94.11
2023-05-10T00:10:26.998Z,94.25
2023-05-10T00:12:53.393Z,94.23
2023-05-10T00:15:19.813Z,93.95
2023-05-10T00:17:46.207Z,94.01
2023-05-10T00:20:12.805Z,94.10
2023-05-10T00:22:39.272Z,94.10
2023-05-10T00:25:06.436Z,94.05
2023-05-10T00:27:32.784Z,94.39
2023-05-10T00:30:00.331Z,94.52
2023-05-10T00:32:26.880Z,94.42
2023-05-10T00:34:53.213Z,94.73
2023-05-10T00:37:19.546Z,94.35
2023-05-10T00:39:45.978Z,94.55
2023-05-10T00:42:12.290Z,94.51
2023-05-10T00:44:38.837Z,94.77
2023-05-10T00:47:05.380Z,94.90
2023-05-10T00:49:32.142Z,94.67
2023-05-10T00:51:58.716Z,94.79
2023-05-10T00:54:25.339Z,94.99
2023-05-10T00:56:52.672Z,94.97
2023-05-10T00:59:19.820Z,94.75
2023-05-10T01:01:47.177Z,94.95
2023-05-10T01:04:15.289Z,95.01
2023-05-10T01:06:45.622Z,94.97
2023-05-10T01:09:12.911Z,95.16
2023-05-10T01:11:40.875Z,95.46
2023-05-10T01:14:07.644Z,95.35
2023-05-10T01:16:41.813Z,95.27
2023-05-10T01:19:17.506Z,95.64
2023-05-10T01:21:50.757Z,95.58
2023-05-10T01:24:47.617Z,95.53
2023-05-10T01:27:38.660Z,95.69
2023-05-10T01:30:34.765Z,95.84
2023-05-10T01:33:19.946Z,95.53
2023-05-10T01:35:46.205Z,95.81
2023-05-10T01:38:18.893Z,95.77
2023-05-10T01:40:48.140Z,95.33
2023-05-10T01:43:29.043Z,95.59
2023-05-10T01:46:05.601Z,95.70
2023-05-10T01:48:33.174Z,95.65
2023-05-10T01:50:59.987Z,95.53
2023-05-10T01:53:27.652Z,95.54
2023-05-10T01:55:56.102Z,95.50
2023-05-10T01:58:28.363Z,95.59
2023-05-10T02:00:55.596Z,95.61
2023-05-10T02:03:24.914Z,95.38
2023-05-10T02:05:54.038Z,95.51
2023-05-10T02:08:22.727Z,95.23
2023-05-10T02:10:52.433Z,95.59
2023-05-10T02:13:20.421Z,95.54
2023-05-10T02:15:51.809Z,95.24
2023-05-10T02:18:19.445Z,95.72
2023-05-10T02:20:47.972Z,95.28
2023-05-10T02:23:16.320Z,95.49
2023-05-10T02:25:44.768Z,95.54
2023-05-10T02:28:13.089Z,95.26
2023-05-10T02:30:40.015Z,95.39
2023-05-10T02:33:07.204Z,95.36
2023-05-10T02:35:34.995Z,95.49
2023-05-10T02:38:02.077Z,95.19
2023-05-10T02:40:29.493Z,95.35
2023-05-10T02:42:58.316Z,95.10
2023-05-10T02:45:29.808Z,95.01
2023-05-10T02:47:57.190Z,95.22
2023-05-10T02:50:28.265Z,95.33
2023-05-10T02:53:00.590Z,95.34
2023-05-10T02:55:33.541Z,95.03
2023-05-10T02:58:01.875Z,95.37
2023-05-10T03:00:28.242Z,94.81
2023-05-10T03:02:55.092Z,95.28
2023-05-10T03:05:21.725Z,95.31
2023-05-10T03:07:49.344Z,95.00
2023-05-10T03:10:16.201Z,94.84
2023-05-10T03:12:49.244Z,94.86
2023-05-10T03:15:32.519Z,94.99
2023-05-10T03:18:12.092Z,95.04
2023-05-10T03:20:48.374Z,94.97
2023-05-10T03:23:22.514Z,95.17
2023-05-10T03:25:50.189Z,95.09
2023-05-10T03:28:17.590Z,95.27
2023-05-10T03:30:44.730Z,95.21
2023-05-10T03:33:11.937Z,95.22
2023-05-10T03:35:38.307Z,95.20
2023-05-10T03:38:06.519Z,95.42
2023-05-10T03:40:33.399Z,95.11
2023-05-10T03:43:00.363Z,95.22
2023-05-10T03:45:26.951Z,95.06
2023-05-10T03:47:53.658Z,95.09
2023-05-10T03:50:20.567Z,95.30
2023-05-10T03:52:46.903Z,95.08
2023-05-10T03:55:13.505Z,95.22
2023-05-10T03:57:39.890Z,95.10
2023-05-10T04:00:06.953Z,95.29
2023-05-10T04:02:33.365Z,95.45
2023-05-10T04:04:59.747Z,95.59
2023-05-10T04:07:26.083Z,95.53
2023-05-10T04:09:52.466Z,95.43
2023-05-10T04:12:18.826Z,95.58
2023-05-10T04:14:45.188Z,95.38
2023-05-10T04:17:11.954Z,95.60
2023-05-10T04:19:38.478Z,95.40
2023-05-10T04:22:04.826Z,95.61
2023-05-10T04:24:31.292Z,95.63
2023-05-10T04:26:58.016Z,95.79
2023-05-10T04:29:24.413Z,95.68
2023-05-10T04:31:51.913Z,95.72
2023-05-10T04:34:18.394Z,95.87
2023-05-10T04:36:44.719Z,95.49
2023-05-10T04:39:11.465Z,95.47
2023-05-10T04:41:39.075Z,95.68
2023-05-10T04:44:05.587Z,95.56
2023-05-10T04:46:32.014Z,95.64
2023-05-10T04:48:58.440Z,95.58
2023-05-10T04:51:24.814Z,96.00
2023-05-10T04:54:04.503Z,95.84
2023-05-10T04:56:32.265Z,95.77
2023-05-10T04:58:58.660Z,95.82
2023-05-10T05:01:25.103Z,96.12
2023-05-10T05:03:53.346Z,96.05
2023-05-10T05:06:20.041Z,95.91
2023-05-10T05:08:46.394Z,95.74
2023-05-10T05:11:12.763Z,95.79
2023-05-10T05:13:39.826Z,95.86
2023-05-10T05:16:06.558Z,96.20
2023-05-10T05:18:32.962Z,95.80
2023-05-10T05:20:59.451Z,96.10
2023-05-10T05:23:25.840Z,96.08
2023-05-10T05:25:53.398Z,95.79
2023-05-10T05:28:24.029Z,95.87
2023-05-10T05:30:50.361Z,95.79
2023-05-10T05:33:16.680Z,96.05
2023-05-10T05:35:48.377Z,95.72
2023-05-10T05:38:15.156Z,95.93
2023-05-10T05:40:41.493Z,95.50
2023-05-10T05:43:07.834Z,95.68
2023-05-10T05:45:34.241Z,95.59
2023-05-10T05:48:00.675Z,95.58
2023-05-10T05:50:27.162Z,95.92
2023-05-10T05:52:53.546Z,95.51
2023-05-10T05:55:20.201Z,95.58
2023-05-10T05:57:46.858Z,95.31
2023-05-10T06:00:17.364Z,95.21
2023-05-10T06:02:44.115Z,95.35
2023-05-10T06:05:10.762Z,95.17
2023-05-10T06:07:37.204Z,94.94
2023-05-10T06:10:04.083Z,94.70
2023-05-10T06:12:30.756Z,94.71
2023-05-10T06:14:57.070Z,94.38
2023-05-10T06:17:23.463Z,94.76
2023-05-10T06:19:49.843Z,94.95
2023-05-10T06:22:16.974Z,94.69
2023-05-10T06:24:44.697Z,94.62
2023-05-10T06:27:12.145Z,94.57
2023-05-10T06:29:38.681Z,94.65
2023-05-10T06:32:05.478Z,94.60
2023-05-10T06:34:32.611Z,94.16
2023-05-10T06:36:59.120Z,94.50
2023-05-10T06:39:25.482Z,94.78
2023-05-10T06:41:51.877Z,94.65
2023-05-10T06:44:18.220Z,94.21
2023-05-10T06:46:44.693Z,94.01
2023-05-10T06:49:11.216Z,94.16
2023-05-10T06:51:38.081Z,94.09
2023-05-10T06:54:04.433Z,94.04
2023-05-10T06:56:31.121Z,93.27
2023-05-10T06:58:57.452Z,93.62
2023-05-10T07:01:23.922Z,94.03
2023-05-10T07:03:50.458Z,93.83
2023-05-10T07:06:29.503Z,93.01
2023-05-10T07:08:59.678Z,93.10
2023-05-10T07:11:26.055Z,92.88
2023-05-10T07:13:52.376Z,92.68
2023-05-10T07:16:19.025Z,92.24
2023-05-10T07:18:45.502Z,92.03
2023-05-10T07:21:11.854Z,92.17
2023-05-10T07:23:38.219Z,91.96
2023-05-10T07:26:04.858Z,92.03
2023-05-10T07:28:31.259Z,91.12
2023-05-10T07:30:57.889Z,91.29
2023-05-10T07:33:24.278Z,91.20
2023-05-10T07:35:51.022Z,91.32
2023-05-10T07:38:18.410Z,91.60
2023-05-10T07:40:44.848Z,90.81
2023-05-10T07:43:11.454Z,91.02
2023-05-10T07:45:37.859Z,91.24
2023-05-10T07:48:04.362Z,90.11
2023-05-10T07:50:30.760Z,90.81
2023-05-10T07:52:57.460Z,90.13
2023-05-10T07:55:23.858Z,89.95
2023-05-10T07:57:50.322Z,89.16
2023-05-10T08:00:21.218Z,89.48
2023-05-10T08:02:48.534Z,89.35
2023-05-10T08:05:15.701Z,88.60
2023-05-10T08:07:43.520Z,88.25
2023-05-10T08:10:11.883Z,88.73
2023-05-10T08:12:39.139Z,89.32
2023-05-10T08:15:06.237Z,88.56
2023-05-10T08:17:32.697Z,89.27
2023-05-10T08:19:59.114Z,89.47
2023-05-10T08:22:25.467Z,89.40
2023-05-10T08:24:52.027Z,89.84
2023-05-10T08:27:18.458Z,89.84
2023-05-10T08:29:50.007Z,88.73
2023-05-10T08:32:16.634Z,89.25
2023-05-10T08:34:43.210Z,89.73
2023-05-10T08:37:09.723Z,89.75
2023-05-10T08:39:36.801Z,89.73
2023-05-10T08:42:05.721Z,89.22
2023-05-10T08:44:35.285Z,89.25
2023-05-10T08:47:07.949Z,88.99
2023-05-10T08:49:35.107Z,88.34
2023-05-10T08:52:06.375Z,88.62
2023-05-10T08:54:34.052Z,87.91
2023-05-10T08:57:00.944Z,87.92
2023-05-10T08:59:28.058Z,88.56
2023-05-10T09:01:56.672Z,88.84
2023-05-10T09:04:24.379Z,87.91
2023-05-10T09:06:50.900Z,88.10
2023-05-10T09:09:18.754Z,86.76
2023-05-10T09:11:45.859Z,87.83
2023-05-10T09:14:13.488Z,86.77
2023-05-10T09:16:42.123Z,85.41
2023-05-10T09:19:09.604Z,86.22
2023-05-10T09:21:40.011Z,86.72
2023-05-10T09:24:07.714Z,85.10
2023-05-10T09:26:36.242Z,85.75
2023-05-10T09:29:08.042Z,83.85
2023-05-10T09:31:55.570Z,83.50
2023-05-10T09:34:30.371Z,83.06
2023-05-10T09:37:01.632Z,83.04
2023-05-10T09:39:35.130Z,80.75
2023-05-10T09:42:07.241Z,83.16
2023-05-10T09:44:34.834Z,81.42
2023-05-10T09:47:02.820Z,79.33
2023-05-10T09:49:29.429Z,78.61
2023-05-10T09:52:07.232Z,79.47
2023-05-10T09:54:36.148Z,81.57
2023-05-10T09:57:03.273Z,80.89
2023-05-10T09:59:30.249Z,79.68
2023-05-10T10:01:58.272Z,79.54
2023-05-10T10:04:24.827Z,78.70
2023-05-10T10:07:02.557Z,78.57
2023-05-10T10:09:30.210Z,79.90
2023-05-10T10:11:57.540Z,77.21
2023-05-10T10:14:27.263Z,79.38
2023-05-10T10:17:06.574Z,80.58
2023-05-10T10:19:36.048Z,79.39
2023-05-10T10:22:02.730Z,80.07
2023-05-10T10:24:29.062Z,79.50
2023-05-10T10:27:03.307Z,78.28
2023-05-10T10:29:49.407Z,77.73
2023-05-10T10:32:39.429Z,79.64
2023-05-10T10:35:07.492Z,79.61
2023-05-10T10:37:47.742Z,80.57
2023-05-10T10:40:28.162Z,77.57
2023-05-10T10:42:55.769Z,78.79
2023-05-10T10:45:23.547Z,78.71
2023-05-10T10:47:54.579Z,77.22
2023-05-10T10:50:21.046Z,77.61
2023-05-10T10:52:49.603Z,79.75
2023-05-10T10:55:24.585Z,79.13
2023-05-10T10:57:53.138Z,78.81
2023-05-10T11:00:23.703Z,78.78
2023-05-10T11:03:11.646Z,79.42
2023-05-10T11:05:39.798Z,76.28
2023-05-10T11:08:26.599Z,77.09
2023-05-10T11:10:59.866Z,78.47
2023-05-10T11:13:33.836Z,76.52
2023-05-10T11:16:11.648Z,75.71
2023-05-10T11:18:38.835Z,78.22
2023-05-10T11:21:10.118Z,78.53
2023-05-10T11:23:49.626Z,79.87
2023-05-10T11:26:16.252Z,79.47
2023-05-10T11:28:49.738Z,78.74
2023-05-10T11:31:20.268Z,76.90
2023-05-10T11:33:48.288Z,76.25
2023-05-10T11:36:20.028Z,76.98
2023-05-10T11:38:47.376Z,75.16
2023-05-10T11:41:14.405Z,75.44
2023-05-10T11:43:41.649Z,74.11
2023-05-10T11:46:13.058Z,75.72
2023-05-10T11:48:40.633Z,72.28
2023-05-10T11:51:11.349Z,73.68
2023-05-10T11:53:38.916Z,73.78
2023-05-10T11:56:10.321Z,73.86
2023-05-10T11:58:38.649Z,73.22
2023-05-10T12:01:08.005Z,73.50
2023-05-10T12:03:35.304Z,74.57
2023-05-10T12:06:02.982Z,74.96
2023-05-10T12:08:30.680Z,76.57
2023-05-10T12:11:08.557Z,77.03
2023-05-10T12:13:43.242Z,75.82
2023-05-10T12:16:30.072Z,74.69
2023-05-10T12:19:01.295Z,74.21
2023-05-10T12:21:31.338Z,73.42
2023-05-10T12:24:03.341Z,72.14
2023-05-10T12:26:30.724Z,72.45
2023-05-10T12:29:16.888Z,71.31
2023-05-10T12:31:53.359Z,71.17
2023-05-10T12:34:37.099Z,72.83
2023-05-10T12:37:04.554Z,71.68
2023-05-10T12:39:42.102Z,72.25
2023-05-10T12:42:08.657Z,70.21
2023-05-10T12:44:35.037Z,69.04
2023-05-10T12:47:01.482Z,70.61
2023-05-10T12:49:27.856Z,68.67
2023-05-10T12:51:54.290Z,69.75
2023-05-10T12:54:20.678Z,70.24
2023-05-10T12:56:47.222Z,70.24
2023-05-10T12:59:13.535Z,69.27
2023-05-10T13:01:40.157Z,69.68
2023-05-10T13:04:06.577Z,70.84
2023-05-10T13:06:33.047Z,70.79
2023-05-10T13:08:59.464Z,72.61
2023-05-10T13:11:26.132Z,72.66
2023-05-10T13:13:52.768Z,74.47
2023-05-10T13:16:19.193Z,75.46
2023-05-10T13:18:45.625Z,76.32
2023-05-10T13:21:12.212Z,76.83
2023-05-10T13:23:38.587Z,76.81
2023-05-10T13:26:05.094Z,77.13
2023-05-10T13:28:31.589Z,78.41
2023-05-10T13:30:58.024Z,79.86
2023-05-10T13:33:24.450Z,80.72
2023-05-10T13:35:50.786Z,80.63
2023-05-10T13:38:17.187Z,81.72
2023-05-10T13:40:43.575Z,82.24
2023-05-10T13:43:09.913Z,82.72
2023-05-10T13:45:36.645Z,83.34
2023-05-10T13:48:03.352Z,83.56
2023-05-10T13:50:31.042Z,84.51
2023-05-10T13:52:57.935Z,84.64
2023-05-10T13:55:24.307Z,84.81
2023-05-10T13:57:50.673Z,85.59
2023-05-10T14:00:17.389Z,85.71
2023-05-10T14:02:43.859Z,86.05
2023-05-10T14:05:10.305Z,86.12
2023-05-10T14:07:36.669Z,85.79
2023-05-10T14:10:03.715Z,86.51
2023-05-10T14:12:31.152Z,86.63
2023-05-10T14:14:58.977Z,86.30
2023-05-10T14:17:25.378Z,87.14
2023-05-10T14:19:51.865Z,87.58
2023-05-10T14:22:19.161Z,87.17
2023-05-10T14:24:47.696Z,87.86
2023-05-10T14:27:14.200Z,87.84
2023-05-10T14:29:40.756Z,88.24
2023-05-10T14:32:07.391Z,88.14
2023-05-10T14:34:34.001Z,88.37
2023-05-10T14:37:00.528Z,88.59
2023-05-10T14:39:30.346Z,88.33
2023-05-10T14:41:57.017Z,88.25
2023-05-10T14:44:23.711Z,88.57
2023-05-10T14:46:50.583Z,88.97
2023-05-10T14:49:16.905Z,88.58
2023-05-10T14:51:43.394Z,88.01
2023-05-10T14:54:13.179Z,88.52
2023-05-10T14:56:39.802Z,88.73
2023-05-10T14:59:06.267Z,88.86
2023-05-10T15:01:33.925Z,89.23
2023-05-10T15:04:00.949Z,89.43
2023-05-10T15:06:35.556Z,89.18
2023-05-10T15:09:04.180Z,88.77
2023-05-10T15:11:30.733Z,88.94
2023-05-10T15:13:57.121Z,89.09
2023-05-10T15:16:23.514Z,88.96
2023-05-10T15:18:49.968Z,89.10
2023-05-10T15:21:16.371Z,88.82
2023-05-10T15:23:42.705Z,88.04
2023-05-10T15:26:09.025Z,88.40
2023-05-10T15:28:35.499Z,88.79
2023-05-10T15:31:01.838Z,87.88
2023-05-10T15:33:28.431Z,88.60
2023-05-10T15:35:54.886Z,87.99
2023-05-10T15:38:21.233Z,87.70
2023-05-10T15:40:47.567Z,88.43
2023-05-10T15:43:14.771Z,87.92
2023-05-10T15:45:41.487Z,87.71
2023-05-10T15:48:07.893Z,88.01
2023-05-10T15:50:34.276Z,87.56
2023-05-10T15:53:00.600Z,87.76
2023-05-10T15:55:27.776Z,87.26
2023-05-10T15:57:54.134Z,86.42
2023-05-10T16:00:20.572Z,86.93
2023-05-10T16:02:47.050Z,84.67
2023-05-10T16:05:14.121Z,85.67
2023-05-10T16:07:41.757Z,85.09
2023-05-10T16:10:10.236Z,85.39
2023-05-10T16:12:36.979Z,86.26
2023-05-10T16:15:03.549Z,85.90
2023-05-10T16:17:29.941Z,85.83
2023-05-10T16:19:56.360Z,85.61
2023-05-10T16:22:27.239Z,86.29
2023-05-10T16:24:53.864Z,86.45
2023-05-10T16:27:20.268Z,86.11
2023-05-10T16:29:47.742Z,86.42
2023-05-10T16:32:14.138Z,86.79
2023-05-10T16:34:40.499Z,87.03
2023-05-10T16:37:06.893Z,86.91
2023-05-10T16:39:33.227Z,86.27
2023-05-10T16:41:59.557Z,87.27
2023-05-10T16:44:26.110Z,87.00
2023-05-10T16:46:53.099Z,86.25
2023-05-10T16:49:19.459Z,86.91
2023-05-10T16:51:46.144Z,85.78
2023-05-10T16:54:12.490Z,86.08
2023-05-10T16:56:38.893Z,85.74
2023-05-10T16:59:05.714Z,85.02
2023-05-10T17:01:33.753Z,84.32
2023-05-10T17:04:00.306Z,83.45
2023-05-10T17:06:26.686Z,84.31
2023-05-10T17:08:52.997Z,85.05
2023-05-10T17:11:20.980Z,84.70
2023-05-10T17:13:47.544Z,84.58
2023-05-10T17:16:14.059Z,83.69
2023-05-10T17:18:41.577Z,83.72
2023-05-10T17:21:09.203Z,83.49
2023-05-10T17:23:35.528Z,83.90
2023-05-10T17:26:04.494Z,84.45
2023-05-10T17:28:31.013Z,83.36
2023-05-10T17:30:57.939Z,83.38
2023-05-10T17:33:24.297Z,84.27
2023-05-10T17:35:50.680Z,84.38
2023-05-10T17:38:17.073Z,84.20
2023-05-10T17:40:43.666Z,82.53
2023-05-10T17:43:09.967Z,82.01
2023-05-10T17:45:36.313Z,80.71
2023-05-10T17:48:03.446Z,82.22
2023-05-10T17:50:29.811Z,83.21
2023-05-10T17:52:56.327Z,83.68
2023-05-10T17:55:22.669Z,83.25
2023-05-10T17:57:51.081Z,84.04
2023-05-10T18:00:18.350Z,84.35
2023-05-10T18:02:44.794Z,83.45
2023-05-10T18:05:11.842Z,82.84
2023-05-10T18:07:38.490Z,83.43
2023-05-10T18:10:05.240Z,83.77
2023-05-10T18:12:31.602Z,83.68
2023-05-10T18:14:57.921Z,83.86
2023-05-10T18:17:24.911Z,83.93
2023-05-10T18:19:51.470Z,84.25
2023-05-10T18:22:17.809Z,84.38
2023-05-10T18:24:44.607Z,83.56
2023-05-10T18:27:11.231Z,84.02
2023-05-10T18:29:37.672Z,84.47
2023-05-10T18:32:04.502Z,84.95
2023-05-10T18:34:30.826Z,85.30
2023-05-10T18:36:57.257Z,85.74
2023-05-10T18:39:24.369Z,85.65
2023-05-10T18:41:50.855Z,85.94
2023-05-10T18:44:19.069Z,85.18
2023-05-10T18:46:46.223Z,85.28
2023-05-10T18:49:12.711Z,85.77
2023-05-10T18:51:39.291Z,86.07
2023-05-10T18:54:05.759Z,86.07
2023-05-10T18:56:32.154Z,86.08
2023-05-10T18:58:58.474Z,85.99
2023-05-10T19:01:24.944Z,86.53
2023-05-10T19:03:51.335Z,86.18
2023-05-10T19:06:17.656Z,86.28
2023-05-10T19:08:44.037Z,86.37
2023-05-10T19:11:10.375Z,86.46
2023-05-10T19:13:36.833Z,86.20
2023-05-10T19:16:05.314Z,86.26
2023-05-10T19:18:32.478Z,86.07
2023-05-10T19:21:01.598Z,86.30
2023-05-10T19:23:29.037Z,86.52
2023-05-10T19:25:55.558Z,87.02
2023-05-10T19:28:22.164Z,87.01
2023-05-10T19:30:50.170Z,87.29
2023-05-10T19:33:19.736Z,87.33
2023-05-10T19:35:46.117Z,87.75
2023-05-10T19:38:12.526Z,88.05
2023-05-10T19:40:38.956Z,88.09
2023-05-10T19:43:05.332Z,88.13
2023-05-10T19:45:31.691Z,88.08
2023-05-10T19:47:58.088Z,88.34
2023-05-10T19:50:24.702Z,88.70
2023-05-10T19:52:51.460Z,88.71
2023-05-10T19:55:27.789Z,89.16
2023-05-10T19:57:54.263Z,88.87
2023-05-10T20:00:20.880Z,88.74
2023-05-10T20:02:47.280Z,88.97
2023-05-10T20:05:13.661Z,89.10
2023-05-10T20:07:40.010Z,89.09
2023-05-10T20:10:06.936Z,89.00
2023-05-10T20:12:33.492Z,89.47
2023-05-10T20:14:59.807Z,88.91
2023-05-10T20:17:26.208Z,89.33
2023-05-10T20:19:52.958Z,89.48
2023-05-10T20:22:19.291Z,89.54
2023-05-10T20:24:45.627Z,89.85
2023-05-10T20:27:12.017Z,89.84
2023-05-10T20:29:38.338Z,90.21
2023-05-10T20:32:05.155Z,89.92
2023-05-10T20:34:31.605Z,90.49
2023-05-10T20:36:58.092Z,90.29
2023-05-10T20:39:24.405Z,90.65
2023-05-10T20:41:50.763Z,90.51
2023-05-10T20:44:17.107Z,90.86
2023-05-10T20:46:43.571Z,90.77
2023-05-10T20:49:09.952Z,90.92
2023-05-10T20:51:36.271Z,91.03
2023-05-10T20:54:04.244Z,90.91
2023-05-10T20:56:31.175Z,91.32
2023-05-10T20:58:57.700Z,91.24
2023-05-10T21:01:25.030Z,91.14
2023-05-10T21:03:51.528Z,91.38
2023-05-10T21:06:17.894Z,91.34
2023-05-10T21:08:44.244Z,91.66
2023-05-10T21:11:10.643Z,91.69
2023-05-10T21:13:37.144Z,91.96
2023-05-10T21:16:04.802Z,91.43
2023-05-10T21:18:31.333Z,91.44
2023-05-10T21:20:58.605Z,91.42
2023-05-10T21:23:25.078Z,91.59
2023-05-10T21:25:51.642Z,91.58
2023-05-10T21:28:18.041Z,91.70
2023-05-10T21:30:44.393Z,92.25
2023-05-10T21:33:11.308Z,92.07
2023-05-10T21:35:39.329Z,92.24
2023-05-10T21:38:05.848Z,91.67
2023-05-10T21:40:32.487Z,91.77
2023-05-10T21:42:58.793Z,91.39
2023-05-10T21:45:25.122Z,91.32
2023-05-10T21:47:51.528Z,91.55
2023-05-10T21:50:18.298Z,91.21
2023-05-10T21:52:44.789Z,91.46
2023-05-10T21:55:11.200Z,91.71
2023-05-10T21:57:37.556Z,91.26
2023-05-10T22:00:04.824Z,91.48
2023-05-10T22:02:31.316Z,91.65
2023-05-10T22:04:57.991Z,91.92
2023-05-10T22:07:24.332Z,91.77
2023-05-10T22:09:50.752Z,91.77
2023-05-10T22:12:17.071Z,91.70
2023-05-10T22:14:43.468Z,91.69
2023-05-10T22:17:10.069Z,91.42
2023-05-10T22:19:36.558Z,91.74
2023-05-10T22:22:02.995Z,91.52
2023-05-10T22:24:30.118Z,91.74
2023-05-10T22:26:56.619Z,91.74
2023-05-10T22:29:23.656Z,91.83
2023-05-10T22:31:50.075Z,91.83
2023-05-10T22:34:16.419Z,91.62
2023-05-10T22:36:42.954Z,91.85
2023-05-10T22:39:09.297Z,91.88
2023-05-10T22:41:35.881Z,91.88
2023-05-10T22:44:02.664Z,92.05
2023-05-10T22:46:29.577Z,91.79
2023-05-10T22:48:56.428Z,92.16
2023-05-10T22:51:22.933Z,92.20
2023-05-10T22:53:49.373Z,92.25
2023-05-10T22:56:15.820Z,92.17
2023-05-10T22:58:42.213Z,92.21
2023-05-10T23:01:08.560Z,92.14
2023-05-10T23:03:35.332Z,91.91
2023-05-10T23:06:01.635Z,92.29
2023-05-10T23:08:28.168Z,92.38
2023-05-10T23:10:54.674Z,92.27
2023-05-10T23:13:21.691Z,92.15
2023-05-10T23:15:48.404Z,92.27
2023-05-10T23:18:15.415Z,91.83
2023-05-10T23:20:42.754Z,92.14
2023-05-10T23:23:10.310Z,92.28
2023-05-10T23:25:37.596Z,92.23
2023-05-10T23:28:04.541Z,92.26
2023-05-10T23:30:31.597Z,92.08
2023-05-10T23:32:58.027Z,92.47
2023-05-10T23:35:24.398Z,92.54
2023-05-10T23:37:50.885Z,92.73
2023-05-10T23:40:17.436Z,92.58
2023-05-10T23:42:44.103Z,92.72
2023-05-10T23:45:11.264Z,92.23
2023-05-10T23:47:37.741Z,92.30
2023-05-10T23:50:05.260Z,92.61
2023-05-10T23:52:31.650Z,92.55
2023-05-10T23:54:58.073Z,92.58
2023-05-10T23:57:24.540Z,92.88
2023-05-10T23:59:50.982Z,92.85
